createdAt,value
2023-04-18T00:00:10.241Z,95805.88
2023-04-18T00:02:44.246Z,95808.34
2023-04-18T00:05:13.222Z,95801.41
2023-04-18T00:07:41.211Z,95804.22
2023-04-18T00:10:09.674Z,95806.56
2023-04-18T00:12:37.693Z,95800.75
2023-04-18T00:15:08.323Z,95795.34
2023-04-18T00:17:38.529Z,95798.59
2023-04-18T00:20:10.585Z,95800.28
2023-04-18T00:22:42.386Z,95792.84
2023-04-18T00:25:11.710Z,95792.72
2023-04-18T00:27:39.851Z,95789.63
2023-04-18T00:30:09.134Z,95790.16
2023-04-18T00:32:38.449Z,95791.47
2023-04-18T00:35:08.274Z,95792.16
2023-04-18T00:37:35.937Z,95795.97
2023-04-18T00:40:05.509Z,95786.88
2023-04-18T00:42:33.208Z,95788.50
2023-04-18T00:45:00.805Z,95791.34
2023-04-18T00:47:28.703Z,95797.34
2023-04-18T00:49:56.536Z,95796.84
2023-04-18T00:52:27.082Z,95798.50
2023-04-18T00:54:55.452Z,95797.41
2023-04-18T00:57:23.491Z,95793.22
2023-04-18T00:59:51.358Z,95789.88
2023-04-18T01:02:20.030Z,95783.25
2023-04-18T01:04:47.760Z,95779.97
2023-04-18T01:07:15.908Z,95780.34
2023-04-18T01:09:45.580Z,95777.88
2023-04-18T01:12:13.900Z,95777.88
2023-04-18T01:14:42.480Z,95770.25
2023-04-18T01:17:10.947Z,95764.16
2023-04-18T01:19:39.356Z,95763.16
2023-04-18T01:22:08.503Z,95760.19
2023-04-18T01:24:37.426Z,95758.50
2023-04-18T01:27:05.966Z,95760.19
2023-04-18T01:29:34.814Z,95762.16
2023-04-18T01:32:02.968Z,95769.44
2023-04-18T01:34:30.571Z,95768.84
2023-04-18T01:36:58.293Z,95768.03
2023-04-18T01:39:26.115Z,95768.34
2023-04-18T01:41:55.265Z,95770.50
2023-04-18T01:44:22.884Z,95783.84
2023-04-18T01:46:50.730Z,95777.94
2023-04-18T01:49:18.345Z,95780.09
2023-04-18T01:51:46.023Z,95774.84
2023-04-18T01:54:15.208Z,95775.00
2023-04-18T01:56:43.297Z,95772.31
2023-04-18T01:59:12.472Z,95772.25
2023-04-18T02:01:40.252Z,95770.44
2023-04-18T02:04:08.024Z,95773.19
2023-04-18T02:06:35.966Z,95776.00
2023-04-18T02:09:03.560Z,95768.63
2023-04-18T02:11:31.418Z,95766.53
2023-04-18T02:13:59.547Z,95772.72
2023-04-18T02:16:28.870Z,95762.88
2023-04-18T02:18:56.476Z,95770.75
2023-04-18T02:21:24.542Z,95776.09
2023-04-18T02:23:52.178Z,95767.44
2023-04-18T02:26:22.771Z,95763.22
2023-04-18T02:28:50.694Z,95753.03
2023-04-18T02:31:18.520Z,95764.63
2023-04-18T02:33:47.937Z,95767.28
2023-04-18T02:36:16.073Z,95766.00
2023-04-18T02:38:44.909Z,95777.47
2023-04-18T02:41:15.144Z,95766.63
2023-04-18T02:43:43.085Z,95771.75
2023-04-18T02:46:10.857Z,95771.25
2023-04-18T02:48:38.812Z,95767.66
2023-04-18T02:51:10.744Z,95765.78
2023-04-18T02:53:39.232Z,95776.06
2023-04-18T02:56:08.376Z,95782.50
2023-04-18T02:58:54.845Z,95778.25
2023-04-18T03:01:56.277Z,95774.25
2023-04-18T03:04:24.594Z,95775.38
2023-04-18T03:07:00.320Z,95771.00
2023-04-18T03:09:30.884Z,95769.69
2023-04-18T03:12:03.968Z,95769.69
2023-04-18T03:14:32.482Z,95767.97
2023-04-18T03:17:00.602Z,95773.66
2023-04-18T03:19:34.759Z,95762.53
2023-04-18T03:22:09.125Z,95765.13
2023-04-18T03:24:42.891Z,95760.91
2023-04-18T03:27:13.767Z,95765.19
2023-04-18T03:29:44.210Z,95755.94
2023-04-18T03:32:12.563Z,95754.47
2023-04-18T03:34:40.528Z,95756.44
2023-04-18T03:37:11.062Z,95756.63
2023-04-18T03:39:44.811Z,95753.22
2023-04-18T03:42:12.624Z,95743.03
2023-04-18T03:44:42.796Z,95745.47
2023-04-18T03:47:10.974Z,95740.19
2023-04-18T03:49:42.486Z,95750.78
2023-04-18T03:52:11.576Z,95750.44
2023-04-18T03:54:39.384Z,95752.75
2023-04-18T03:57:07.172Z,95744.53
2023-04-18T03:59:37.070Z,95756.19
2023-04-18T04:02:04.830Z,95760.94
2023-04-18T04:04:32.940Z,95759.31
2023-04-18T04:07:00.934Z,95761.63
2023-04-18T04:09:29.931Z,95753.44
2023-04-18T04:11:57.573Z,95769.53
2023-04-18T04:14:25.756Z,95765.53
2023-04-18T04:16:54.136Z,95756.03
2023-04-18T04:19:23.032Z,95763.25
2023-04-18T04:22:04.315Z,95770.03
2023-04-18T04:24:35.406Z,95770.19
2023-04-18T04:27:03.668Z,95773.19
2023-04-18T04:29:32.532Z,95773.19
2023-04-18T04:32:00.504Z,95769.19
2023-04-18T04:34:35.664Z,95774.78
2023-04-18T04:37:05.518Z,95765.22
2023-04-18T04:39:41.432Z,95771.19
2023-04-18T04:42:28.501Z,95778.44
2023-04-18T04:45:12.778Z,95772.16
2023-04-18T04:47:40.980Z,95775.44
2023-04-18T04:50:14.584Z,95775.44
2023-04-18T04:52:42.535Z,95772.81
2023-04-18T04:55:11.774Z,95777.91
2023-04-18T04:57:41.308Z,95775.44
2023-04-18T05:00:25.633Z,95778.28
2023-04-18T05:02:54.502Z,95776.13
2023-04-18T05:05:23.501Z,95772.84
2023-04-18T05:07:51.433Z,95782.53
2023-04-18T05:10:20.753Z,95785.63
2023-04-18T05:12:48.598Z,95789.88
2023-04-18T05:15:16.983Z,95781.00
2023-04-18T05:17:44.622Z,95791.38
2023-04-18T05:20:12.804Z,95787.94
2023-04-18T05:22:40.486Z,95786.09
2023-04-18T05:25:08.998Z,95789.22
2023-04-18T05:27:37.957Z,95787.84
2023-04-18T05:30:06.798Z,95791.63
2023-04-18T05:32:34.485Z,95796.72
2023-04-18T05:35:02.369Z,95789.13
2023-04-18T05:37:30.013Z,95786.84
2023-04-18T05:39:59.909Z,95794.44
2023-04-18T05:42:28.296Z,95794.13
2023-04-18T05:44:57.676Z,95795.53
2023-04-18T05:47:26.856Z,95794.94
2023-04-18T05:49:54.646Z,95787.84
2023-04-18T05:52:22.271Z,95795.44
2023-04-18T05:54:50.073Z,95799.72
2023-04-18T05:57:17.699Z,95804.31
2023-04-18T05:59:45.833Z,95798.03
2023-04-18T06:02:14.898Z,95806.91
2023-04-18T06:04:43.483Z,95802.94
2023-04-18T06:07:11.439Z,95813.00
2023-04-18T06:09:39.169Z,95810.28
2023-04-18T06:12:07.005Z,95811.63
2023-04-18T06:14:34.808Z,95811.41
2023-04-18T06:17:02.492Z,95813.25
2023-04-18T06:19:31.436Z,95812.22
2023-04-18T06:21:59.047Z,95808.22
2023-04-18T06:24:26.746Z,95809.84
2023-04-18T06:26:55.132Z,95821.00
2023-04-18T06:29:23.214Z,95811.63
2023-04-18T06:31:52.058Z,95816.41
2023-04-18T06:34:19.744Z,95822.63
2023-04-18T06:36:49.152Z,95817.53
2023-04-18T06:39:16.989Z,95823.34
2023-04-18T06:41:44.595Z,95821.50
2023-04-18T06:44:17.150Z,95822.97
2023-04-18T06:46:44.794Z,95830.84
2023-04-18T06:49:12.455Z,95827.56
2023-04-18T06:51:40.279Z,95821.66
2023-04-18T06:54:09.275Z,95826.63
2023-04-18T06:56:37.076Z,95834.81
2023-04-18T06:59:04.797Z,95832.50
2023-04-18T07:01:33.802Z,95830.88
2023-04-18T07:04:01.783Z,95838.84
2023-04-18T07:06:29.574Z,95839.19
2023-04-18T07:09:00.115Z,95846.59
2023-04-18T07:11:29.789Z,95844.00
2023-04-18T07:13:57.396Z,95840.00
2023-04-18T07:16:25.230Z,95844.81
2023-04-18T07:18:52.853Z,95840.28
2023-04-18T07:21:20.624Z,95845.22
2023-04-18T07:23:48.204Z,95849.06
2023-04-18T07:26:15.849Z,95835.16
2023-04-18T07:28:44.803Z,95839.66
2023-04-18T07:31:14.465Z,95846.19
2023-04-18T07:33:43.260Z,95836.28
2023-04-18T07:36:11.097Z,95839.00
2023-04-18T07:38:38.709Z,95846.06
2023-04-18T07:41:06.324Z,95835.00
2023-04-18T07:43:33.907Z,95841.97
2023-04-18T07:46:03.312Z,95842.09
2023-04-18T07:48:31.425Z,95848.75
2023-04-18T07:50:59.191Z,95840.78
2023-04-18T07:53:26.806Z,95843.09
2023-04-18T07:55:55.344Z,95840.00
2023-04-18T07:58:23.001Z,95839.81
2023-04-18T08:00:50.816Z,95839.97
2023-04-18T08:03:20.020Z,95842.06
2023-04-18T08:05:49.041Z,95847.78
2023-04-18T08:08:17.962Z,95844.75
2023-04-18T08:10:46.081Z,95847.94
2023-04-18T08:13:14.052Z,95844.13
2023-04-18T08:15:42.248Z,95854.97
2023-04-18T08:18:09.950Z,95849.66
2023-04-18T08:20:38.943Z,95850.56
2023-04-18T08:23:10.391Z,95848.88
2023-04-18T08:25:40.017Z,95844.69
2023-04-18T08:28:07.791Z,95842.56
2023-04-18T08:30:35.973Z,95833.88
2023-04-18T08:33:03.761Z,95839.03
2023-04-18T08:35:31.450Z,95841.31
2023-04-18T08:38:02.707Z,95838.16
2023-04-18T08:40:30.953Z,95838.31
2023-04-18T08:42:58.690Z,95842.44
2023-04-18T08:45:26.857Z,95841.34
2023-04-18T08:47:55.995Z,95843.28
2023-04-18T08:50:24.074Z,95836.38
2023-04-18T08:52:52.204Z,95845.38
2023-04-18T08:55:22.446Z,95841.13
2023-04-18T08:57:54.104Z,95849.75
2023-04-18T09:00:23.897Z,95856.22
2023-04-18T09:02:56.475Z,95857.56
2023-04-18T09:05:26.986Z,95855.66
2023-04-18T09:07:56.238Z,95857.53
2023-04-18T09:10:32.507Z,95864.34
2023-04-18T09:13:02.993Z,95859.22
2023-04-18T09:15:31.718Z,95865.75
2023-04-18T09:18:02.211Z,95863.94
2023-04-18T09:20:35.858Z,95864.50
2023-04-18T09:23:04.956Z,95867.06
2023-04-18T09:25:39.839Z,95868.16
2023-04-18T09:28:24.116Z,95865.47
2023-04-18T09:30:53.203Z,95862.84
2023-04-18T09:33:28.121Z,95863.63
2023-04-18T09:35:55.970Z,95867.41
2023-04-18T09:38:39.973Z,95871.38
2023-04-18T09:41:13.517Z,95875.75
2023-04-18T09:43:41.798Z,95873.38
2023-04-18T09:46:10.036Z,95882.59
2023-04-18T09:48:37.892Z,95879.81
2023-04-18T09:51:07.941Z,95875.28
2023-04-18T09:53:39.401Z,95882.00
2023-04-18T09:56:08.153Z,95879.06
2023-04-18T09:58:41.622Z,95881.44
2023-04-18T10:01:09.799Z,95884.97
2023-04-18T10:03:45.334Z,95881.25
2023-04-18T10:06:16.451Z,95879.09
2023-04-18T10:08:45.319Z,95884.25
2023-04-18T10:11:13.326Z,95870.50
2023-04-18T10:13:45.592Z,95881.03
2023-04-18T10:16:14.409Z,95876.84
2023-04-18T10:18:43.819Z,95883.06
2023-04-18T10:21:11.827Z,95885.25
2023-04-18T10:23:40.461Z,95881.72
2023-04-18T10:26:09.023Z,95882.16
2023-04-18T10:28:55.185Z,95877.94
2023-04-18T10:31:23.774Z,95880.50
2023-04-18T10:34:03.940Z,95884.66
2023-04-18T10:36:32.912Z,95878.09
2023-04-18T10:39:03.148Z,95883.72
2023-04-18T10:41:32.512Z,95875.56
2023-04-18T10:44:18.176Z,95867.78
2023-04-18T10:47:19.723Z,95870.97
2023-04-18T10:49:58.761Z,95872.75
2023-04-18T10:52:31.370Z,95866.97
2023-04-18T10:55:12.041Z,95859.25
2023-04-18T10:57:41.169Z,95861.53
2023-04-18T11:00:13.850Z,95861.00
2023-04-18T11:02:48.789Z,95850.16
2023-04-18T11:05:20.595Z,95846.28
2023-04-18T11:07:48.860Z,95850.56
2023-04-18T11:10:19.309Z,95845.13
2023-04-18T11:12:48.828Z,95841.13
2023-04-18T11:15:21.516Z,95834.06
2023-04-18T11:18:01.579Z,95827.63
2023-04-18T11:20:30.251Z,95840.69
2023-04-18T11:22:59.571Z,95832.66
2023-04-18T11:25:29.291Z,95835.28
2023-04-18T11:27:59.949Z,95830.91
2023-04-18T11:30:31.303Z,95835.22
2023-04-18T11:32:59.046Z,95836.91
2023-04-18T11:35:26.970Z,95835.84
2023-04-18T11:37:55.444Z,95840.41
2023-04-18T11:40:23.142Z,95848.69
2023-04-18T11:42:50.787Z,95848.47
2023-04-18T11:45:18.502Z,95851.56
2023-04-18T11:47:47.577Z,95851.97
2023-04-18T11:50:15.311Z,95852.00
2023-04-18T11:52:43.436Z,95861.81
2023-04-18T11:55:14.030Z,95853.03
2023-04-18T11:57:42.178Z,95865.28
2023-04-18T12:00:12.241Z,95861.31
2023-04-18T12:02:42.648Z,95856.59
2023-04-18T12:05:15.037Z,95855.53
2023-04-18T12:07:45.955Z,95855.75
2023-04-18T12:10:25.943Z,95858.78
2023-04-18T12:12:55.055Z,95851.38
2023-04-18T12:15:26.914Z,95853.03
2023-04-18T12:17:59.298Z,95858.16
2023-04-18T12:20:34.761Z,95855.56
2023-04-18T12:23:03.396Z,95859.78
2023-04-18T12:25:31.634Z,95860.75
2023-04-18T12:28:00.908Z,95857.97
2023-04-18T12:30:29.755Z,95851.13
2023-04-18T12:33:00.062Z,95850.72
2023-04-18T12:35:30.443Z,95856.66
2023-04-18T12:37:59.923Z,95854.44
2023-04-18T12:40:28.300Z,95853.84
2023-04-18T12:42:57.095Z,95857.31
2023-04-18T12:45:25.347Z,95852.84
2023-04-18T12:47:53.758Z,95862.22
2023-04-18T12:50:22.730Z,95855.88
2023-04-18T12:52:53.495Z,95857.28
2023-04-18T12:55:21.758Z,95847.03
2023-04-18T12:57:51.909Z,95862.59
2023-04-18T13:00:19.881Z,95858.94
2023-04-18T13:02:47.853Z,95862.41
2023-04-18T13:05:17.552Z,95851.59
2023-04-18T13:07:47.282Z,95854.03
2023-04-18T13:10:19.588Z,95853.66
2023-04-18T13:12:47.810Z,95850.94
2023-04-18T13:15:15.941Z,95853.19
2023-04-18T13:17:44.693Z,95846.69
2023-04-18T13:20:13.651Z,95854.59
2023-04-18T13:22:42.554Z,95850.72
2023-04-18T13:25:11.807Z,95853.16
2023-04-18T13:27:42.554Z,95856.03
2023-04-18T13:30:11.834Z,95849.09
2023-04-18T13:32:40.514Z,95847.06
2023-04-18T13:35:09.564Z,95850.34
2023-04-18T13:37:37.836Z,95846.41
2023-04-18T13:40:06.927Z,95847.00
2023-04-18T13:42:35.200Z,95847.47
2023-04-18T13:45:04.722Z,95847.91
2023-04-18T13:47:32.506Z,95846.41
2023-04-18T13:50:00.335Z,95846.84
2023-04-18T13:52:27.976Z,95845.41
2023-04-18T13:54:55.825Z,95842.97
2023-04-18T13:57:23.459Z,95840.72
2023-04-18T13:59:51.178Z,95851.31
2023-04-18T14:02:20.207Z,95849.56
2023-04-18T14:04:48.071Z,95848.59
2023-04-18T14:07:16.464Z,95855.63
2023-04-18T14:09:44.678Z,95856.41
2023-04-18T14:12:12.234Z,95855.03
2023-04-18T14:14:39.824Z,95861.28
2023-04-18T14:17:07.439Z,95858.00
2023-04-18T14:19:36.386Z,95858.88
2023-04-18T14:22:03.941Z,95867.94
2023-04-18T14:24:31.576Z,95864.66
2023-04-18T14:26:59.188Z,95876.09
2023-04-18T14:29:27.154Z,95874.06
2023-04-18T14:31:54.731Z,95871.63
2023-04-18T14:34:22.309Z,95866.91
2023-04-18T14:36:51.273Z,95873.41
2023-04-18T14:39:19.128Z,95867.84
2023-04-18T14:41:46.698Z,95863.00
2023-04-18T14:44:14.572Z,95867.28
2023-04-18T14:46:43.368Z,95866.00
2023-04-18T14:49:11.111Z,95865.75
2023-04-18T14:51:38.983Z,95870.63
2023-04-18T14:54:07.971Z,95873.03
2023-04-18T14:56:36.102Z,95869.59
2023-04-18T14:59:03.818Z,95871.84
2023-04-18T15:01:31.520Z,95867.28
2023-04-18T15:03:59.406Z,95880.53
2023-04-18T15:06:28.357Z,95874.59
2023-04-18T15:08:56.627Z,95879.88
2023-04-18T15:11:27.093Z,95872.13
2023-04-18T15:13:54.759Z,95874.97
2023-04-18T15:16:22.372Z,95880.25
2023-04-18T15:18:50.029Z,95873.28
2023-04-18T15:21:17.586Z,95880.09
2023-04-18T15:23:45.256Z,95876.19
2023-04-18T15:26:12.839Z,95881.53
2023-04-18T15:28:41.905Z,95874.97
2023-04-18T15:31:10.838Z,95887.84
2023-04-18T15:33:38.562Z,95884.78
2023-04-18T15:36:06.749Z,95888.06
2023-04-18T15:38:34.404Z,95885.41
2023-04-18T15:41:02.071Z,95888.81
2023-04-18T15:43:29.780Z,95885.06
2023-04-18T15:45:58.922Z,95884.22
2023-04-18T15:48:27.121Z,95893.00
2023-04-18T15:50:54.989Z,95881.41
2023-04-18T15:53:22.734Z,95892.03
2023-04-18T15:55:50.839Z,95884.41
2023-04-18T15:58:20.527Z,95888.88
2023-04-18T16:00:49.909Z,95885.50
2023-04-18T16:03:19.404Z,95889.13
2023-04-18T16:05:47.566Z,95893.69
2023-04-18T16:08:15.328Z,95897.41
2023-04-18T16:10:43.042Z,95892.66
2023-04-18T16:13:10.750Z,95895.31
2023-04-18T16:15:41.399Z,95891.03
2023-04-18T16:18:09.467Z,95897.63
2023-04-18T16:20:38.538Z,95898.25
2023-04-18T16:23:06.391Z,95896.19
2023-04-18T16:25:33.960Z,95903.31
2023-04-18T16:28:01.549Z,95897.94
2023-04-18T16:30:29.216Z,95899.03
2023-04-18T16:32:56.939Z,95905.31
2023-04-18T16:35:24.848Z,95904.44
2023-04-18T16:37:53.858Z,95902.41
2023-04-18T16:40:21.910Z,95910.50
2023-04-18T16:42:49.569Z,95915.41
2023-04-18T16:45:17.526Z,95905.84
2023-04-18T16:47:45.189Z,95912.81
2023-04-18T16:50:12.929Z,95913.25
2023-04-18T16:52:40.967Z,95914.91
2023-04-18T16:55:10.889Z,95910.75
2023-04-18T16:57:38.545Z,95904.19
2023-04-18T17:00:10.168Z,95909.47
2023-04-18T17:02:39.588Z,95906.59
2023-04-18T17:05:07.906Z,95914.88
2023-04-18T17:07:35.521Z,95923.84
2023-04-18T17:10:03.538Z,95922.31
2023-04-18T17:12:32.462Z,95924.44
2023-04-18T17:15:00.165Z,95924.53
2023-04-18T17:17:27.772Z,95922.69
2023-04-18T17:19:56.101Z,95929.63
2023-04-18T17:22:23.820Z,95928.63
2023-04-18T17:24:51.663Z,95930.53
2023-04-18T17:27:19.422Z,95930.00
2023-04-18T17:29:48.583Z,95935.69
2023-04-18T17:32:16.205Z,95926.91
2023-04-18T17:34:43.894Z,95927.56
2023-04-18T17:37:12.073Z,95928.81
2023-04-18T17:39:39.925Z,95932.28
2023-04-18T17:42:07.489Z,95941.22
2023-04-18T17:44:35.084Z,95945.31
2023-04-18T17:47:03.998Z,95939.59
2023-04-18T17:49:34.853Z,95934.13
2023-04-18T17:52:02.503Z,95949.78
2023-04-18T17:54:30.438Z,95945.69
2023-04-18T17:56:58.297Z,95942.06
2023-04-18T17:59:26.076Z,95951.63
2023-04-18T18:01:53.735Z,95945.06
2023-04-18T18:04:24.794Z,95942.34
2023-04-18T18:06:55.238Z,95945.25
2023-04-18T18:09:23.164Z,95947.44
2023-04-18T18:11:50.744Z,95946.44
2023-04-18T18:14:18.465Z,95944.53
2023-04-18T18:16:46.143Z,95947.06
2023-04-18T18:19:14.742Z,95949.72
2023-04-18T18:21:43.951Z,95947.19
2023-04-18T18:24:11.521Z,95954.44
2023-04-18T18:26:39.117Z,95955.56
2023-04-18T18:29:09.800Z,95952.72
2023-04-18T18:31:37.483Z,95966.31
2023-04-18T18:34:05.402Z,95962.03
2023-04-18T18:36:33.078Z,95963.03
2023-04-18T18:39:02.258Z,95964.69
2023-04-18T18:41:29.868Z,95970.41
2023-04-18T18:43:57.582Z,95973.50
2023-04-18T18:46:25.284Z,95970.25
2023-04-18T18:48:53.167Z,95978.31
2023-04-18T18:51:20.854Z,95980.34
2023-04-18T18:53:48.442Z,95985.88
2023-04-18T18:56:17.851Z,95992.97
2023-04-18T18:58:45.452Z,95986.06
2023-04-18T19:01:13.191Z,95992.97
2023-04-18T19:03:41.013Z,95997.06
2023-04-18T19:06:08.974Z,95996.06
2023-04-18T19:08:36.635Z,95997.56
2023-04-18T19:11:04.311Z,95995.25
2023-04-18T19:13:33.429Z,96003.03
2023-04-18T19:16:01.095Z,95999.91
2023-04-18T19:18:28.839Z,96009.53
2023-04-18T19:20:56.426Z,96007.97
2023-04-18T19:23:25.224Z,96009.78
2023-04-18T19:25:53.182Z,96002.34
2023-04-18T19:28:22.517Z,96006.81
2023-04-18T19:30:53.022Z,96004.25
2023-04-18T19:33:21.141Z,96009.66
2023-04-18T19:35:48.768Z,96015.38
2023-04-18T19:38:16.388Z,96011.28
2023-04-18T19:40:44.124Z,96001.06
2023-04-18T19:43:11.724Z,95999.16
2023-04-18T19:45:41.878Z,96003.19
2023-04-18T19:48:13.796Z,96008.56
2023-04-18T19:50:47.097Z,96016.50
2023-04-18T19:53:19.640Z,96014.81
2023-04-18T19:55:55.756Z,96011.63
2023-04-18T19:58:36.790Z,96002.94
2023-04-18T20:01:06.025Z,96012.69
2023-04-18T20:03:35.219Z,96011.53
2023-04-18T20:06:05.518Z,96008.47
2023-04-18T20:08:33.394Z,96002.13
2023-04-18T20:11:01.011Z,96012.59
2023-04-18T20:13:28.643Z,96023.25
2023-04-18T20:15:56.283Z,96017.16
2023-04-18T20:18:24.848Z,96011.88
2023-04-18T20:20:53.792Z,96013.75
2023-04-18T20:23:21.467Z,96012.47
2023-04-18T20:25:49.176Z,96013.53
2023-04-18T20:28:16.784Z,96008.44
2023-04-18T20:30:44.844Z,96010.03
2023-04-18T20:33:12.479Z,96012.00
2023-04-18T20:35:40.520Z,96011.84
2023-04-18T20:38:11.122Z,96018.22
2023-04-18T20:40:39.939Z,96012.84
2023-04-18T20:43:07.989Z,96005.91
2023-04-18T20:45:37.540Z,96012.94
2023-04-18T20:48:06.390Z,96010.53
2023-04-18T20:50:34.145Z,96006.00
2023-04-18T20:53:02.195Z,96017.22
2023-04-18T20:55:31.330Z,96018.47
2023-04-18T20:57:59.492Z,96005.69
2023-04-18T21:00:27.565Z,96000.03
2023-04-18T21:02:55.332Z,96015.88
2023-04-18T21:05:23.327Z,96003.34
2023-04-18T21:07:50.902Z,96012.34
2023-04-18T21:10:18.619Z,96014.88
2023-04-18T21:12:47.670Z,96012.72
2023-04-18T21:15:15.317Z,96013.91
2023-04-18T21:17:43.181Z,96014.22
2023-04-18T21:20:11.102Z,96018.88
2023-04-18T21:22:38.840Z,96022.34
2023-04-18T21:25:07.709Z,96014.72
2023-04-18T21:27:35.467Z,96019.88
2023-04-18T21:30:05.171Z,96014.09
2023-04-18T21:32:32.887Z,96022.75
2023-04-18T21:35:01.442Z,96021.63
2023-04-18T21:37:29.086Z,96024.44
2023-04-18T21:39:56.652Z,96018.56
2023-04-18T21:42:24.351Z,96022.66
2023-04-18T21:44:51.928Z,96016.56
2023-04-18T21:47:21.024Z,96020.34
2023-04-18T21:49:49.433Z,96018.09
2023-04-18T21:52:17.259Z,96022.69
2023-04-18T21:54:44.860Z,96019.47
2023-04-18T21:57:12.570Z,96007.63
2023-04-18T21:59:40.139Z,96010.75
2023-04-18T22:02:07.933Z,96017.81
2023-04-18T22:04:38.023Z,96023.09
2023-04-18T22:07:06.541Z,96006.28
2023-04-18T22:09:36.182Z,96016.66
2023-04-18T22:12:04.223Z,96010.56
2023-04-18T22:14:32.596Z,96012.56
2023-04-18T22:17:04.657Z,96008.97
2023-04-18T22:19:32.368Z,96004.28
2023-04-18T22:22:01.582Z,96003.69
2023-04-18T22:24:29.175Z,96009.28
2023-04-18T22:26:56.878Z,96003.50
2023-04-18T22:29:24.470Z,95999.72
2023-04-18T22:31:52.205Z,96005.69
2023-04-18T22:34:19.798Z,96008.97
2023-04-18T22:36:47.754Z,96006.22
2023-04-18T22:39:16.694Z,96007.31
2023-04-18T22:41:44.397Z,96004.69
2023-04-18T22:44:12.008Z,96007.22
2023-04-18T22:46:39.802Z,96010.78
2023-04-18T22:49:07.430Z,96012.28
2023-04-18T22:51:35.308Z,96015.06
2023-04-18T22:54:02.906Z,96007.50
2023-04-18T22:56:31.970Z,96006.50
2023-04-18T22:58:59.561Z,96014.25
2023-04-18T23:01:27.309Z,96012.59
2023-04-18T23:03:55.177Z,96012.28
2023-04-18T23:06:23.149Z,96005.31
2023-04-18T23:08:50.870Z,96013.59
2023-04-18T23:11:18.564Z,96012.28
2023-04-18T23:13:47.601Z,96014.97
2023-04-18T23:16:15.296Z,96016.25
2023-04-18T23:18:43.242Z,96015.63
2023-04-18T23:21:10.832Z,96017.75
2023-04-18T23:23:38.665Z,96008.19
2023-04-18T23:26:13.632Z,96007.53
2023-04-18T23:28:41.724Z,96003.91
2023-04-18T23:31:11.057Z,96002.25
2023-04-18T23:33:38.882Z,95998.81
2023-04-18T23:36:07.292Z,96001.78
2023-04-18T23:38:37.256Z,96001.78
2023-04-18T23:41:05.020Z,95995.88
2023-04-18T23:43:32.993Z,95998.84
2023-04-18T23:46:00.626Z,96001.47
2023-04-18T23:48:29.756Z,95995.75
2023-04-18T23:50:57.493Z,95997.56
2023-04-18T23:53:25.381Z,95992.59
2023-04-18T23:55:54.257Z,95989.00
2023-04-18T23:58:21.976Z,95988.31
